sensor_id;sensor_type;location;lat;lon;timestamp;temperature;humidity
46816;DHT22;32787;53.316;8.670;2022-11-20T00:03:42;1.00;91.50
46816;DHT22;32787;53.316;8.670;2022-11-20T00:06:11;1.00;91.60
46816;DHT22;32787;53.316;8.670;2022-11-20T00:08:37;1.00;91.70
46816;DHT22;32787;53.316;8.670;2022-11-20T00:11:08;1.00;91.80
46816;DHT22;32787;53.316;8.670;2022-11-20T00:13:34;1.10;91.90
46816;DHT22;32787;53.316;8.670;2022-11-20T00:16:02;1.10;91.80
46816;DHT22;32787;53.316;8.670;2022-11-20T00:18:28;1.00;91.90
46816;DHT22;32787;53.316;8.670;2022-11-20T00:20:59;1.20;91.90
46816;DHT22;32787;53.316;8.670;2022-11-20T00:23:25;1.20;91.60
46816;DHT22;32787;53.316;8.670;2022-11-20T00:25:50;1.10;91.50
46816;DHT22;32787;53.316;8.670;2022-11-20T00:28:16;1.10;91.60
46816;DHT22;32787;53.316;8.670;2022-11-20T00:30:42;1.10;91.50
46816;DHT22;32787;53.316;8.670;2022-11-20T00:33:07;1.00;91.60
46816;DHT22;32787;53.316;8.670;2022-11-20T00:35:33;0.90;91.70
46816;DHT22;32787;53.316;8.670;2022-11-20T00:37:58;1.10;91.90
46816;DHT22;32787;53.316;8.670;2022-11-20T00:40:24;1.30;91.90
46816;DHT22;32787;53.316;8.670;2022-11-20T00:42:49;1.30;91.60
46816;DHT22;32787;53.316;8.670;2022-11-20T00:45:15;1.20;91.50
46816;DHT22;32787;53.316;8.670;2022-11-20T00:47:40;1.00;91.50
46816;DHT22;32787;53.316;8.670;2022-11-20T00:50:06;1.00;91.60
46816;DHT22;32787;53.316;8.670;2022-11-20T00:52:32;1.00;91.70
46816;DHT22;32787;53.316;8.670;2022-11-20T00:54:58;1.20;91.80
46816;DHT22;32787;53.316;8.670;2022-11-20T00:57:23;1.30;91.70
46816;DHT22;32787;53.316;8.670;2022-11-20T00:59:49;1.30;91.50
46816;DHT22;32787;53.316;8.670;2022-11-20T01:02:15;1.30;91.30
46816;DHT22;32787;53.316;8.670;2022-11-20T01:04:42;1.20;91.30
46816;DHT22;32787;53.316;8.670;2022-11-20T01:07:07;1.10;91.40
46816;DHT22;32787;53.316;8.670;2022-11-20T01:09:33;1.00;91.60
46816;DHT22;32787;53.316;8.670;2022-11-20T01:11:59;1.10;91.80
46816;DHT22;32787;53.316;8.670;2022-11-20T01:14:24;1.10;91.80
46816;DHT22;32787;53.316;8.670;2022-11-20T01:16:50;1.10;91.90
46816;DHT22;32787;53.316;8.670;2022-11-20T01:19:21;1.10;91.80
46816;DHT22;32787;53.316;8.670;2022-11-20T01:21:52;1.10;91.80
46816;DHT22;32787;53.316;8.670;2022-11-20T01:24:19;1.40;91.90
46816;DHT22;32787;53.316;8.670;2022-11-20T01:26:47;1.50;91.20
46816;DHT22;32787;53.316;8.670;2022-11-20T01:29:22;1.50;90.70
46816;DHT22;32787;53.316;8.670;2022-11-20T01:31:48;1.40;90.70
46816;DHT22;32787;53.316;8.670;2022-11-20T01:34:16;1.40;90.60
46816;DHT22;32787;53.316;8.670;2022-11-20T01:36:43;1.40;90.80
46816;DHT22;32787;53.316;8.670;2022-11-20T01:39:14;1.20;90.70
46816;DHT22;32787;53.316;8.670;2022-11-20T01:41:41;1.30;91.20
46816;DHT22;32787;53.316;8.670;2022-11-20T01:44:47;1.20;91.00
46816;DHT22;32787;53.316;8.670;2022-11-20T01:47:17;1.10;91.30
46816;DHT22;32787;53.316;8.670;2022-11-20T01:49:52;1.30;91.50
46816;DHT22;32787;53.316;8.670;2022-11-20T01:52:45;1.30;91.20
46816;DHT22;32787;53.316;8.670;2022-11-20T01:55:19;1.20;91.30
46816;DHT22;32787;53.316;8.670;2022-11-20T01:57:45;1.20;91.40
46816;DHT22;32787;53.316;8.670;2022-11-20T02:00:14;1.10;91.50
46816;DHT22;32787;53.316;8.670;2022-11-20T02:02:44;1.10;91.60
46816;DHT22;32787;53.316;8.670;2022-11-20T02:05:24;1.30;91.80
46816;DHT22;32787;53.316;8.670;2022-11-20T02:07:51;1.60;91.20
46816;DHT22;32787;53.316;8.670;2022-11-20T02:10:18;1.40;90.60
46816;DHT22;32787;53.316;8.670;2022-11-20T02:12:44;1.40;90.40
46816;DHT22;32787;53.316;8.670;2022-11-20T02:15:28;1.10;90.50
46816;DHT22;32787;53.316;8.670;2022-11-20T02:17:54;1.10;90.90
46816;DHT22;32787;53.316;8.670;2022-11-20T02:20:20;1.20;91.10
46816;DHT22;32787;53.316;8.670;2022-11-20T02:22:53;1.20;91.00
46816;DHT22;32787;53.316;8.670;2022-11-20T02:25:20;1.20;90.80
46816;DHT22;32787;53.316;8.670;2022-11-20T02:27:46;1.10;90.90
46816;DHT22;32787;53.316;8.670;2022-11-20T02:30:12;1.00;91.10
46816;DHT22;32787;53.316;8.670;2022-11-20T02:32:39;1.10;91.50
46816;DHT22;32787;53.316;8.670;2022-11-20T02:37:47;1.10;91.00
46816;DHT22;32787;53.316;8.670;2022-11-20T02:40:13;1.10;91.10
46816;DHT22;32787;53.316;8.670;2022-11-20T02:42:39;1.00;91.30
46816;DHT22;32787;53.316;8.670;2022-11-20T02:45:05;0.90;91.40
46816;DHT22;32787;53.316;8.670;2022-11-20T02:47:32;1.00;91.50
46816;DHT22;32787;53.316;8.670;2022-11-20T02:49:58;1.10;91.60
46816;DHT22;32787;53.316;8.670;2022-11-20T02:52:24;1.10;91.40
46816;DHT22;32787;53.316;8.670;2022-11-20T02:54:50;1.00;91.40
46816;DHT22;32787;53.316;8.670;2022-11-20T02:57:16;0.90;91.50
46816;DHT22;32787;53.316;8.670;2022-11-20T02:59:41;0.90;91.50
46816;DHT22;32787;53.316;8.670;2022-11-20T03:02:07;1.10;91.80
46816;DHT22;32787;53.316;8.670;2022-11-20T03:04:33;1.30;91.60
46816;DHT22;32787;53.316;8.670;2022-11-20T03:06:58;1.20;91.10
46816;DHT22;32787;53.316;8.670;2022-11-20T03:09:24;1.10;91.10
46816;DHT22;32787;53.316;8.670;2022-11-20T03:11:50;1.20;91.20
46816;DHT22;32787;53.316;8.670;2022-11-20T03:14:15;1.00;91.20
46816;DHT22;32787;53.316;8.670;2022-11-20T03:16:41;1.00;91.20
46816;DHT22;32787;53.316;8.670;2022-11-20T03:19:06;1.00;91.30
46816;DHT22;32787;53.316;8.670;2022-11-20T03:21:35;0.90;91.30
46816;DHT22;32787;53.316;8.670;2022-11-20T03:24:01;0.90;91.40
46816;DHT22;32787;53.316;8.670;2022-11-20T03:26:28;0.90;91.40
46816;DHT22;32787;53.316;8.670;2022-11-20T03:28:56;1.10;91.60
46816;DHT22;32787;53.316;8.670;2022-11-20T03:31:33;1.00;91.50
46816;DHT22;32787;53.316;8.670;2022-11-20T03:33:59;1.00;91.50
46816;DHT22;32787;53.316;8.670;2022-11-20T03:36:26;1.20;91.40
46816;DHT22;32787;53.316;8.670;2022-11-20T03:38:56;1.10;91.00
46816;DHT22;32787;53.316;8.670;2022-11-20T03:41:26;1.20;91.00
46816;DHT22;32787;53.316;8.670;2022-11-20T03:44:00;1.20;90.90
46816;DHT22;32787;53.316;8.670;2022-11-20T03:46:27;1.30;90.40
46816;DHT22;32787;53.316;8.670;2022-11-20T03:48:53;1.20;90.30
46816;DHT22;32787;53.316;8.670;2022-11-20T03:51:21;1.20;90.70
46816;DHT22;32787;53.316;8.670;2022-11-20T03:53:48;1.50;90.40
46816;DHT22;32787;53.316;8.670;2022-11-20T03:56:15;1.70;89.50
46816;DHT22;32787;53.316;8.670;2022-11-20T03:58:42;1.80;89.10
46816;DHT22;32787;53.316;8.670;2022-11-20T04:01:11;1.60;88.70
46816;DHT22;32787;53.316;8.670;2022-11-20T04:03:38;1.40;89.00
46816;DHT22;32787;53.316;8.670;2022-11-20T04:06:10;1.30;89.30
46816;DHT22;32787;53.316;8.670;2022-11-20T04:08:36;1.20;89.60
46816;DHT22;32787;53.316;8.670;2022-11-20T04:11:12;1.00;89.80
46816;DHT22;32787;53.316;8.670;2022-11-20T04:13:39;1.10;90.10
46816;DHT22;32787;53.316;8.670;2022-11-20T04:16:06;0.90;90.40
46816;DHT22;32787;53.316;8.670;2022-11-20T04:18:32;0.90;90.60
46816;DHT22;32787;53.316;8.670;2022-11-20T04:20:58;0.90;90.90
46816;DHT22;32787;53.316;8.670;2022-11-20T04:23:25;0.80;90.90
46816;DHT22;32787;53.316;8.670;2022-11-20T04:25:51;0.80;91.10
46816;DHT22;32787;53.316;8.670;2022-11-20T04:28:16;0.80;91.30
46816;DHT22;32787;53.316;8.670;2022-11-20T04:30:42;1.00;91.60
46816;DHT22;32787;53.316;8.670;2022-11-20T04:33:08;1.20;91.10
46816;DHT22;32787;53.316;8.670;2022-11-20T04:35:34;1.20;90.90
46816;DHT22;32787;53.316;8.670;2022-11-20T04:38:00;1.20;90.50
46816;DHT22;32787;53.316;8.670;2022-11-20T04:40:27;1.20;90.50
46816;DHT22;32787;53.316;8.670;2022-11-20T04:42:52;1.10;90.60
46816;DHT22;32787;53.316;8.670;2022-11-20T04:45:18;1.40;90.60
46816;DHT22;32787;53.316;8.670;2022-11-20T04:47:43;1.30;90.00
46816;DHT22;32787;53.316;8.670;2022-11-20T04:50:09;1.30;90.30
46816;DHT22;32787;53.316;8.670;2022-11-20T04:52:35;1.40;90.20
46816;DHT22;32787;53.316;8.670;2022-11-20T04:55:00;1.20;89.80
46816;DHT22;32787;53.316;8.670;2022-11-20T04:57:26;1.20;90.10
46816;DHT22;32787;53.316;8.670;2022-11-20T04:59:51;1.00;90.30
46816;DHT22;32787;53.316;8.670;2022-11-20T05:02:17;0.90;90.60
46816;DHT22;32787;53.316;8.670;2022-11-20T05:04:43;0.90;90.70
46816;DHT22;32787;53.316;8.670;2022-11-20T05:07:09;0.90;90.80
46816;DHT22;32787;53.316;8.670;2022-11-20T05:09:34;0.80;91.00
46816;DHT22;32787;53.316;8.670;2022-11-20T05:12:00;0.80;91.10
46816;DHT22;32787;53.316;8.670;2022-11-20T05:14:25;0.90;91.20
46816;DHT22;32787;53.316;8.670;2022-11-20T05:16:51;1.20;91.50
46816;DHT22;32787;53.316;8.670;2022-11-20T05:19:16;1.10;91.10
46816;DHT22;32787;53.316;8.670;2022-11-20T05:21:42;1.00;91.10
46816;DHT22;32787;53.316;8.670;2022-11-20T05:24:08;1.20;91.20
46816;DHT22;32787;53.316;8.670;2022-11-20T05:26:33;1.30;91.10
46816;DHT22;32787;53.316;8.670;2022-11-20T05:28:59;1.50;90.80
46816;DHT22;32787;53.316;8.670;2022-11-20T05:31:25;1.40;90.00
46816;DHT22;32787;53.316;8.670;2022-11-20T05:33:51;1.20;90.10
46816;DHT22;32787;53.316;8.670;2022-11-20T05:36:17;1.40;90.00
46816;DHT22;32787;53.316;8.670;2022-11-20T05:38:43;1.30;90.00
46816;DHT22;32787;53.316;8.670;2022-11-20T05:41:15;1.30;90.00
46816;DHT22;32787;53.316;8.670;2022-11-20T05:43:43;1.20;90.20
46816;DHT22;32787;53.316;8.670;2022-11-20T05:46:11;1.10;90.30
46816;DHT22;32787;53.316;8.670;2022-11-20T05:48:38;1.20;90.60
46816;DHT22;32787;53.316;8.670;2022-11-20T05:51:05;1.10;90.60
46816;DHT22;32787;53.316;8.670;2022-11-20T05:53:32;1.10;90.80
46816;DHT22;32787;53.316;8.670;2022-11-20T05:56:02;1.10;90.90
46816;DHT22;32787;53.316;8.670;2022-11-20T05:58:28;1.20;91.00
46816;DHT22;32787;53.316;8.670;2022-11-20T06:00:54;1.10;91.10
46816;DHT22;32787;53.316;8.670;2022-11-20T06:03:20;1.20;91.30
46816;DHT22;32787;53.316;8.670;2022-11-20T06:05:46;1.30;91.10
46816;DHT22;32787;53.316;8.670;2022-11-20T06:08:11;1.30;91.10
46816;DHT22;32787;53.316;8.670;2022-11-20T06:10:37;1.30;91.00
46816;DHT22;32787;53.316;8.670;2022-11-20T06:13:03;1.20;91.00
46816;DHT22;32787;53.316;8.670;2022-11-20T06:15:28;1.40;90.90
46816;DHT22;32787;53.316;8.670;2022-11-20T06:17:55;1.40;90.60
46816;DHT22;32787;53.316;8.670;2022-11-20T06:20:21;1.40;90.40
46816;DHT22;32787;53.316;8.670;2022-11-20T06:22:47;1.30;90.40
46816;DHT22;32787;53.316;8.670;2022-11-20T06:25:13;1.20;90.40
46816;DHT22;32787;53.316;8.670;2022-11-20T06:27:38;1.40;90.80
46816;DHT22;32787;53.316;8.670;2022-11-20T06:30:05;1.30;90.40
46816;DHT22;32787;53.316;8.670;2022-11-20T06:32:31;1.50;90.50
46816;DHT22;32787;53.316;8.670;2022-11-20T06:34:56;1.70;90.00
46816;DHT22;32787;53.316;8.670;2022-11-20T06:37:22;1.50;89.10
46816;DHT22;32787;53.316;8.670;2022-11-20T06:39:47;1.30;89.40
46816;DHT22;32787;53.316;8.670;2022-11-20T06:42:13;1.20;89.90
46816;DHT22;32787;53.316;8.670;2022-11-20T06:44:39;1.20;90.10
46816;DHT22;32787;53.316;8.670;2022-11-20T06:47:04;1.20;90.00
46816;DHT22;32787;53.316;8.670;2022-11-20T06:49:30;1.10;90.20
46816;DHT22;32787;53.316;8.670;2022-11-20T06:51:55;1.00;90.40
46816;DHT22;32787;53.316;8.670;2022-11-20T06:54:21;1.00;90.60
46816;DHT22;32787;53.316;8.670;2022-11-20T06:56:47;1.10;90.80
46816;DHT22;32787;53.316;8.670;2022-11-20T06:59:13;1.10;90.80
46816;DHT22;32787;53.316;8.670;2022-11-20T07:01:38;1.10;90.90
46816;DHT22;32787;53.316;8.670;2022-11-20T07:04:04;1.20;91.10
46816;DHT22;32787;53.316;8.670;2022-11-20T07:06:30;1.40;90.70
46816;DHT22;32787;53.316;8.670;2022-11-20T07:08:56;1.40;90.20
46816;DHT22;32787;53.316;8.670;2022-11-20T07:11:22;1.40;90.30
46816;DHT22;32787;53.316;8.670;2022-11-20T07:13:48;1.20;90.30
46816;DHT22;32787;53.316;8.670;2022-11-20T07:16:14;1.20;90.50
46816;DHT22;32787;53.316;8.670;2022-11-20T07:18:40;1.20;90.60
46816;DHT22;32787;53.316;8.670;2022-11-20T07:21:08;1.20;90.70
46816;DHT22;32787;53.316;8.670;2022-11-20T07:23:35;1.30;90.80
46816;DHT22;32787;53.316;8.670;2022-11-20T07:26:08;1.40;90.70
46816;DHT22;32787;53.316;8.670;2022-11-20T07:28:35;1.60;90.50
46816;DHT22;32787;53.316;8.670;2022-11-20T07:31:01;1.70;90.10
46816;DHT22;32787;53.316;8.670;2022-11-20T07:33:27;1.60;89.20
46816;DHT22;32787;53.316;8.670;2022-11-20T07:35:52;1.60;89.40
46816;DHT22;32787;53.316;8.670;2022-11-20T07:38:18;1.60;89.40
46816;DHT22;32787;53.316;8.670;2022-11-20T07:40:44;1.60;89.20
46816;DHT22;32787;53.316;8.670;2022-11-20T07:43:09;1.40;89.50
46816;DHT22;32787;53.316;8.670;2022-11-20T07:45:35;1.40;89.50
46816;DHT22;32787;53.316;8.670;2022-11-20T07:48:00;1.50;89.90
46816;DHT22;32787;53.316;8.670;2022-11-20T07:50:26;1.60;89.90
46816;DHT22;32787;53.316;8.670;2022-11-20T07:52:52;1.60;89.70
46816;DHT22;32787;53.316;8.670;2022-11-20T07:55:18;1.60;89.70
46816;DHT22;32787;53.316;8.670;2022-11-20T07:57:43;1.70;89.70
46816;DHT22;32787;53.316;8.670;2022-11-20T08:00:10;1.90;89.40
46816;DHT22;32787;53.316;8.670;2022-11-20T08:02:40;1.90;89.10
46816;DHT22;32787;53.316;8.670;2022-11-20T08:05:07;1.90;88.50
46816;DHT22;32787;53.316;8.670;2022-11-20T08:07:37;1.80;88.60
46816;DHT22;32787;53.316;8.670;2022-11-20T08:10:03;1.70;88.70
46816;DHT22;32787;53.316;8.670;2022-11-20T08:12:29;1.70;88.40
46816;DHT22;32787;53.316;8.670;2022-11-20T08:15:13;1.60;88.60
46816;DHT22;32787;53.316;8.670;2022-11-20T08:17:39;1.60;88.90
46816;DHT22;32787;53.316;8.670;2022-11-20T08:20:05;1.70;89.10
46816;DHT22;32787;53.316;8.670;2022-11-20T08:22:30;1.70;88.70
46816;DHT22;32787;53.316;8.670;2022-11-20T08:24:56;1.60;88.80
46816;DHT22;32787;53.316;8.670;2022-11-20T08:27:22;1.70;88.60
46816;DHT22;32787;53.316;8.670;2022-11-20T08:29:48;1.60;88.90
46816;DHT22;32787;53.316;8.670;2022-11-20T08:32:13;1.80;89.20
46816;DHT22;32787;53.316;8.670;2022-11-20T08:34:39;1.70;89.00
46816;DHT22;32787;53.316;8.670;2022-11-20T08:37:05;1.60;89.00
46816;DHT22;32787;53.316;8.670;2022-11-20T08:39:30;1.70;89.30
46816;DHT22;32787;53.316;8.670;2022-11-20T08:41:56;2.00;89.20
46816;DHT22;32787;53.316;8.670;2022-11-20T08:44:21;2.00;88.40
46816;DHT22;32787;53.316;8.670;2022-11-20T08:46:47;1.90;88.20
46816;DHT22;32787;53.316;8.670;2022-11-20T08:49:14;1.80;88.70
46816;DHT22;32787;53.316;8.670;2022-11-20T08:51:41;1.80;89.20
46816;DHT22;32787;53.316;8.670;2022-11-20T08:54:07;1.90;89.00
46816;DHT22;32787;53.316;8.670;2022-11-20T08:56:33;2.00;88.20
46816;DHT22;32787;53.316;8.670;2022-11-20T08:58:59;2.00;88.30
46816;DHT22;32787;53.316;8.670;2022-11-20T09:01:25;2.00;88.50
46816;DHT22;32787;53.316;8.670;2022-11-20T09:03:51;1.90;88.00
46816;DHT22;32787;53.316;8.670;2022-11-20T09:06:17;1.90;88.40
46816;DHT22;32787;53.316;8.670;2022-11-20T09:08:43;2.00;88.30
46816;DHT22;32787;53.316;8.670;2022-11-20T09:11:09;2.00;88.20
46816;DHT22;32787;53.316;8.670;2022-11-20T09:13:36;2.10;88.20
46816;DHT22;32787;53.316;8.670;2022-11-20T09:16:07;2.00;88.00
46816;DHT22;32787;53.316;8.670;2022-11-20T09:18:34;1.70;88.50
46816;DHT22;32787;53.316;8.670;2022-11-20T09:21:03;1.70;89.20
46816;DHT22;32787;53.316;8.670;2022-11-20T09:23:34;1.70;89.20
46816;DHT22;32787;53.316;8.670;2022-11-20T09:26:05;1.90;89.40
46816;DHT22;32787;53.316;8.670;2022-11-20T09:28:31;2.00;88.90
46816;DHT22;32787;53.316;8.670;2022-11-20T09:30:57;1.90;89.20
46816;DHT22;32787;53.316;8.670;2022-11-20T09:33:23;2.00;89.60
46816;DHT22;32787;53.316;8.670;2022-11-20T09:35:49;2.40;89.10
46816;DHT22;32787;53.316;8.670;2022-11-20T09:38:14;2.40;88.70
46816;DHT22;32787;53.316;8.670;2022-11-20T09:40:47;2.10;88.30
46816;DHT22;32787;53.316;8.670;2022-11-20T09:46:22;1.90;88.90
46816;DHT22;32787;53.316;8.670;2022-11-20T09:49:14;1.90;89.50
46816;DHT22;32787;53.316;8.670;2022-11-20T09:51:59;1.90;89.60
46816;DHT22;32787;53.316;8.670;2022-11-20T09:54:58;1.90;89.80
46816;DHT22;32787;53.316;8.670;2022-11-20T09:57:34;2.10;90.00
46816;DHT22;32787;53.316;8.670;2022-11-20T10:00:03;2.20;89.40
46816;DHT22;32787;53.316;8.670;2022-11-20T10:05:25;2.00;89.70
46816;DHT22;32787;53.316;8.670;2022-11-20T10:08:12;1.90;89.70
46816;DHT22;32787;53.316;8.670;2022-11-20T10:10:45;1.90;89.90
46816;DHT22;32787;53.316;8.670;2022-11-20T10:13:17;1.70;90.00
46816;DHT22;32787;53.316;8.670;2022-11-20T10:16:09;1.70;90.20
46816;DHT22;32787;53.316;8.670;2022-11-20T10:29:33;2.70;88.50
46816;DHT22;32787;53.316;8.670;2022-11-20T10:32:07;2.80;88.30
46816;DHT22;32787;53.316;8.670;2022-11-20T10:37:37;2.80;87.80
46816;DHT22;32787;53.316;8.670;2022-11-20T10:42:47;2.90;87.30
46816;DHT22;32787;53.316;8.670;2022-11-20T10:50:26;2.60;86.90
46816;DHT22;32787;53.316;8.670;2022-11-20T10:53:19;2.30;87.70
46816;DHT22;32787;53.316;8.670;2022-11-20T10:56:23;2.40;88.10
46816;DHT22;32787;53.316;8.670;2022-11-20T11:01:40;2.60;87.90
46816;DHT22;32787;53.316;8.670;2022-11-20T11:06:48;2.40;87.70
46816;DHT22;32787;53.316;8.670;2022-11-20T11:09:19;2.30;87.70
46816;DHT22;32787;53.316;8.670;2022-11-20T11:11:46;2.20;87.90
46816;DHT22;32787;53.316;8.670;2022-11-20T11:14:14;2.40;88.70
46816;DHT22;32787;53.316;8.670;2022-11-20T11:16:55;2.70;88.20
46816;DHT22;32787;53.316;8.670;2022-11-20T11:19:21;2.90;87.20
46816;DHT22;32787;53.316;8.670;2022-11-20T11:21:56;2.80;86.80
46816;DHT22;32787;53.316;8.670;2022-11-20T11:24:24;2.60;87.00
46816;DHT22;32787;53.316;8.670;2022-11-20T11:26:53;2.80;87.90
46816;DHT22;32787;53.316;8.670;2022-11-20T11:29:20;2.80;86.90
46816;DHT22;32787;53.316;8.670;2022-11-20T11:31:45;2.90;87.00
46816;DHT22;32787;53.316;8.670;2022-11-20T11:34:16;2.90;87.10
46816;DHT22;32787;53.316;8.670;2022-11-20T11:36:49;2.80;87.30
46816;DHT22;32787;53.316;8.670;2022-11-20T11:39:18;2.90;87.30
46816;DHT22;32787;53.316;8.670;2022-11-20T11:41:45;2.90;87.20
46816;DHT22;32787;53.316;8.670;2022-11-20T11:47:02;2.80;87.10
46816;DHT22;32787;53.316;8.670;2022-11-20T11:49:29;2.80;87.30
46816;DHT22;32787;53.316;8.670;2022-11-20T11:52:18;2.90;87.50
46816;DHT22;32787;53.316;8.670;2022-11-20T11:54:54;2.90;87.30
46816;DHT22;32787;53.316;8.670;2022-11-20T11:57:29;2.90;87.30
46816;DHT22;32787;53.316;8.670;2022-11-20T12:00:20;3.10;87.00
46816;DHT22;32787;53.316;8.670;2022-11-20T12:08:05;3.00;86.90
46816;DHT22;32787;53.316;8.670;2022-11-20T12:10:50;2.90;86.40
46816;DHT22;32787;53.316;8.670;2022-11-20T12:16:04;3.20;86.00
46816;DHT22;32787;53.316;8.670;2022-11-20T12:18:30;3.10;85.60
46816;DHT22;32787;53.316;8.670;2022-11-20T12:24:00;3.10;85.70
46816;DHT22;32787;53.316;8.670;2022-11-20T12:40:28;3.00;86.20
46816;DHT22;32787;53.316;8.670;2022-11-20T12:51:54;2.70;86.50
46816;DHT22;32787;53.316;8.670;2022-11-20T13:00:15;2.60;87.20
46816;DHT22;32787;53.316;8.670;2022-11-20T13:03:05;2.90;86.80
46816;DHT22;32787;53.316;8.670;2022-11-20T13:05:54;2.90;86.60
46816;DHT22;32787;53.316;8.670;2022-11-20T13:08:41;3.30;86.10
46816;DHT22;32787;53.316;8.670;2022-11-20T13:18:47;3.20;85.10
46816;DHT22;32787;53.316;8.670;2022-11-20T13:21:20;3.20;85.40
46816;DHT22;32787;53.316;8.670;2022-11-20T13:23:46;3.10;85.80
46816;DHT22;32787;53.316;8.670;2022-11-20T13:26:23;3.10;86.00
46816;DHT22;32787;53.316;8.670;2022-11-20T13:29:02;3.20;86.10
46816;DHT22;32787;53.316;8.670;2022-11-20T13:31:31;3.50;85.60
46816;DHT22;32787;53.316;8.670;2022-11-20T13:33:58;3.60;85.20
46816;DHT22;32787;53.316;8.670;2022-11-20T13:36:27;3.50;84.80
46816;DHT22;32787;53.316;8.670;2022-11-20T13:38:55;3.50;85.10
46816;DHT22;32787;53.316;8.670;2022-11-20T13:41:35;3.50;85.10
46816;DHT22;32787;53.316;8.670;2022-11-20T13:46:40;3.30;84.90
46816;DHT22;32787;53.316;8.670;2022-11-20T13:49:16;3.40;84.60
46816;DHT22;32787;53.316;8.670;2022-11-20T13:51:43;3.20;85.00
46816;DHT22;32787;53.316;8.670;2022-11-20T13:57:07;3.00;85.60
46816;DHT22;32787;53.316;8.670;2022-11-20T14:01:57;2.80;86.50
46816;DHT22;32787;53.316;8.670;2022-11-20T14:04:29;2.60;86.40
46816;DHT22;32787;53.316;8.670;2022-11-20T14:06:56;2.50;86.40
46816;DHT22;32787;53.316;8.670;2022-11-20T14:09:28;2.50;86.60
46816;DHT22;32787;53.316;8.670;2022-11-20T14:11:54;2.60;86.10
46816;DHT22;32787;53.316;8.670;2022-11-20T14:14:21;2.60;86.00
46816;DHT22;32787;53.316;8.670;2022-11-20T14:16:48;2.40;86.00
46816;DHT22;32787;53.316;8.670;2022-11-20T14:21:52;2.60;85.90
46816;DHT22;32787;53.316;8.670;2022-11-20T14:24:23;2.80;85.10
46816;DHT22;32787;53.316;8.670;2022-11-20T14:26:50;2.60;85.30
46816;DHT22;32787;53.316;8.670;2022-11-20T14:29:18;2.40;85.70
46816;DHT22;32787;53.316;8.670;2022-11-20T14:31:45;2.30;86.20
46816;DHT22;32787;53.316;8.670;2022-11-20T14:34:22;2.40;86.40
46816;DHT22;32787;53.316;8.670;2022-11-20T14:36:49;2.60;85.30
46816;DHT22;32787;53.316;8.670;2022-11-20T14:39:21;2.70;84.90
46816;DHT22;32787;53.316;8.670;2022-11-20T14:41:53;2.70;84.60
46816;DHT22;32787;53.316;8.670;2022-11-20T14:44:37;2.60;84.70
46816;DHT22;32787;53.316;8.670;2022-11-20T14:47:03;2.30;85.70
46816;DHT22;32787;53.316;8.670;2022-11-20T14:49:30;2.20;86.30
46816;DHT22;32787;53.316;8.670;2022-11-20T14:52:01;2.10;86.40
46816;DHT22;32787;53.316;8.670;2022-11-20T14:54:27;1.90;86.90
46816;DHT22;32787;53.316;8.670;2022-11-20T14:57:02;1.80;86.90
46816;DHT22;32787;53.316;8.670;2022-11-20T14:59:33;1.70;87.30
46816;DHT22;32787;53.316;8.670;2022-11-20T15:02:04;1.80;87.00
46816;DHT22;32787;53.316;8.670;2022-11-20T15:04:30;1.50;87.10
46816;DHT22;32787;53.316;8.670;2022-11-20T15:06:58;1.30;87.60
46816;DHT22;32787;53.316;8.670;2022-11-20T15:09:24;1.20;88.10
46816;DHT22;32787;53.316;8.670;2022-11-20T15:11:58;1.20;88.30
46816;DHT22;32787;53.316;8.670;2022-11-20T15:14:25;1.30;88.20
46816;DHT22;32787;53.316;8.670;2022-11-20T15:16:52;1.40;87.80
46816;DHT22;32787;53.316;8.670;2022-11-20T15:19:25;1.20;87.80
46816;DHT22;32787;53.316;8.670;2022-11-20T15:21:52;1.00;87.70
46816;DHT22;32787;53.316;8.670;2022-11-20T15:24:17;0.70;88.00
46816;DHT22;32787;53.316;8.670;2022-11-20T15:26:43;0.50;88.50
46816;DHT22;32787;53.316;8.670;2022-11-20T15:29:14;0.60;88.70
46816;DHT22;32787;53.316;8.670;2022-11-20T15:31:44;0.50;88.70
46816;DHT22;32787;53.316;8.670;2022-11-20T15:34:16;0.30;89.10
46816;DHT22;32787;53.316;8.670;2022-11-20T15:36:42;0.10;89.40
46816;DHT22;32787;53.316;8.670;2022-11-20T15:39:09;0.20;89.50
46816;DHT22;32787;53.316;8.670;2022-11-20T15:41:35;0.10;89.50
46816;DHT22;32787;53.316;8.670;2022-11-20T15:44:02;0.10;89.60
46816;DHT22;32787;53.316;8.670;2022-11-20T15:46:30;0.00;89.70
46816;DHT22;32787;53.316;8.670;2022-11-20T15:49:00;0.00;89.80
46816;DHT22;32787;53.316;8.670;2022-11-20T15:51:29;-3276.70;89.60
46816;DHT22;32787;53.316;8.670;2022-11-20T15:53:56;-3276.50;89.90
46816;DHT22;32787;53.316;8.670;2022-11-20T15:56:23;-3276.60;90.20
46816;DHT22;32787;53.316;8.670;2022-11-20T15:58:49;-3276.70;90.20
46816;DHT22;32787;53.316;8.670;2022-11-20T16:01:17;-3276.70;90.00
46816;DHT22;32787;53.316;8.670;2022-11-20T16:03:43;-3276.60;90.10
46816;DHT22;32787;53.316;8.670;2022-11-20T16:06:09;-3276.40;89.90
46816;DHT22;32787;53.316;8.670;2022-11-20T16:08:35;-3276.40;90.00
46816;DHT22;32787;53.316;8.670;2022-11-20T16:11:01;-3276.50;90.00
46816;DHT22;32787;53.316;8.670;2022-11-20T16:13:26;-3276.40;90.00
46816;DHT22;32787;53.316;8.670;2022-11-20T16:16:23;-3276.40;90.20
46816;DHT22;32787;53.316;8.670;2022-11-20T16:18:51;-3276.30;90.20
46816;DHT22;32787;53.316;8.670;2022-11-20T16:21:17;-3276.20;90.40
46816;DHT22;32787;53.316;8.670;2022-11-20T16:23:42;-3276.10;90.70
46816;DHT22;32787;53.316;8.670;2022-11-20T16:26:11;-3276.10;90.80
46816;DHT22;32787;53.316;8.670;2022-11-20T16:28:37;-3276.30;91.10
46816;DHT22;32787;53.316;8.670;2022-11-20T16:31:14;-3276.30;90.90
46816;DHT22;32787;53.316;8.670;2022-11-20T16:33:41;-3276.30;90.90
46816;DHT22;32787;53.316;8.670;2022-11-20T16:36:09;-3276.30;90.90
46816;DHT22;32787;53.316;8.670;2022-11-20T16:38:34;-3276.40;90.70
46816;DHT22;32787;53.316;8.670;2022-11-20T16:41:01;-3276.30;90.60
46816;DHT22;32787;53.316;8.670;2022-11-20T16:43:27;-3276.40;90.90
46816;DHT22;32787;53.316;8.670;2022-11-20T16:45:52;-3276.70;90.80
46816;DHT22;32787;53.316;8.670;2022-11-20T16:48:18;0.00;90.70
46816;DHT22;32787;53.316;8.670;2022-11-20T16:50:49;0.00;90.40
46816;DHT22;32787;53.316;8.670;2022-11-20T16:53:17;0.30;90.40
46816;DHT22;32787;53.316;8.670;2022-11-20T16:55:42;0.60;89.10
46816;DHT22;32787;53.316;8.670;2022-11-20T16:58:08;0.30;88.70
46816;DHT22;32787;53.316;8.670;2022-11-20T17:00:38;0.30;89.10
46816;DHT22;32787;53.316;8.670;2022-11-20T17:03:05;0.20;89.30
46816;DHT22;32787;53.316;8.670;2022-11-20T17:05:31;0.30;89.10
46816;DHT22;32787;53.316;8.670;2022-11-20T17:07:57;0.50;89.40
46816;DHT22;32787;53.316;8.670;2022-11-20T17:10:23;0.50;88.80
46816;DHT22;32787;53.316;8.670;2022-11-20T17:12:49;0.30;89.10
46816;DHT22;32787;53.316;8.670;2022-11-20T17:15:14;0.10;89.40
46816;DHT22;32787;53.316;8.670;2022-11-20T17:17:40;0.10;89.80
46816;DHT22;32787;53.316;8.670;2022-11-20T17:20:06;0.00;90.00
46816;DHT22;32787;53.316;8.670;2022-11-20T17:22:32;0.00;90.20
46816;DHT22;32787;53.316;8.670;2022-11-20T17:24:57;0.20;90.20
46816;DHT22;32787;53.316;8.670;2022-11-20T17:27:23;0.30;90.20
46816;DHT22;32787;53.316;8.670;2022-11-20T17:29:48;0.40;89.60